createdAt,value
2018-12-30T00:00:41.535Z,101791.41
2018-12-30T00:03:08.202Z,101780.80
2018-12-30T00:05:34.880Z,101781.06
2018-12-30T00:08:01.649Z,101780.34
2018-12-30T00:10:28.512Z,101764.88
2018-12-30T00:12:55.297Z,101762.97
2018-12-30T00:15:21.997Z,101761.23
2018-12-30T00:17:48.746Z,101745.67
2018-12-30T00:20:15.496Z,101735.67
2018-12-30T00:22:42.272Z,101714.29
2018-12-30T00:25:09.034Z,101707.92
2018-12-30T00:27:35.785Z,101709.48
2018-12-30T00:30:02.555Z,101720.95
2018-12-30T00:32:29.304Z,101716.52
2018-12-30T00:34:56.038Z,101711.52
2018-12-30T00:37:22.808Z,101711.94
2018-12-30T00:39:49.580Z,101717.72
2018-12-30T00:42:16.348Z,101727.72
2018-12-30T00:44:43.085Z,101737.44
2018-12-30T00:47:09.868Z,101750.42
2018-12-30T00:49:36.625Z,101751.59
2018-12-30T00:52:03.384Z,101750.09
2018-12-30T00:54:30.132Z,101753.45
2018-12-30T00:56:56.889Z,101760.73
2018-12-30T00:59:23.644Z,101761.87
2018-12-30T01:01:50.414Z,101751.43
2018-12-30T01:04:17.181Z,101744.56
2018-12-30T01:06:43.929Z,101755.61
2018-12-30T01:09:10.677Z,101758.78
2018-12-30T01:11:37.448Z,101760.34
2018-12-30T01:14:04.221Z,101767.97
2018-12-30T01:16:30.984Z,101759.77
2018-12-30T01:18:58.336Z,101770.38
2018-12-30T01:21:25.397Z,101774.59
2018-12-30T01:23:51.859Z,101771.44
2018-12-30T01:26:18.617Z,101778.10
2018-12-30T01:28:45.365Z,101768.48
2018-12-30T01:31:12.168Z,101777.80
2018-12-30T01:33:38.936Z,101776.84
2018-12-30T01:36:05.700Z,101768.16
2018-12-30T01:38:32.440Z,101775.72
2018-12-30T01:40:59.224Z,101766.80
2018-12-30T01:43:25.968Z,101774.12
2018-12-30T01:45:52.728Z,101776.00
2018-12-30T01:48:19.452Z,101779.52
2018-12-30T01:50:46.225Z,101779.02
2018-12-30T01:53:12.978Z,101775.80
2018-12-30T01:55:39.743Z,101767.70
2018-12-30T01:58:06.489Z,101761.03
2018-12-30T02:00:33.257Z,101771.61
2018-12-30T02:03:00.020Z,101771.05
2018-12-30T02:05:26.776Z,101769.60
2018-12-30T02:07:53.528Z,101767.09
2018-12-30T02:10:20.268Z,101775.90
2018-12-30T02:12:47.028Z,101772.05
2018-12-30T02:15:13.761Z,101782.14
2018-12-30T02:17:40.525Z,101788.12
2018-12-30T02:20:07.272Z,101777.77
2018-12-30T02:22:34.044Z,101788.50
2018-12-30T02:25:00.784Z,101777.61
2018-12-30T02:27:27.600Z,101778.38
2018-12-30T02:29:54.332Z,101779.22
2018-12-30T02:32:21.162Z,101772.78
2018-12-30T02:34:47.856Z,101772.40
2018-12-30T02:37:14.609Z,101772.66
2018-12-30T02:39:41.360Z,101769.37
2018-12-30T02:42:08.128Z,101771.30
2018-12-30T02:44:34.907Z,101776.22
2018-12-30T02:47:01.633Z,101779.44
2018-12-30T02:49:28.373Z,101777.50
2018-12-30T02:51:55.151Z,101788.08
2018-12-30T02:54:21.896Z,101784.09
2018-12-30T02:56:48.676Z,101780.09
2018-12-30T02:59:15.414Z,101770.05
2018-12-30T03:01:42.178Z,101766.78
2018-12-30T03:04:08.974Z,101781.02
2018-12-30T03:06:35.738Z,101784.49
2018-12-30T03:09:02.556Z,101791.05
2018-12-30T03:11:29.309Z,101774.31
2018-12-30T03:13:56.081Z,101779.23
2018-12-30T03:16:22.816Z,101766.47
2018-12-30T03:18:49.584Z,101789.91
2018-12-30T03:21:16.321Z,101786.48
2018-12-30T03:23:43.093Z,101774.06
2018-12-30T03:26:09.835Z,101768.22
2018-12-30T03:28:36.605Z,101782.03
2018-12-30T03:31:03.342Z,101778.23
2018-12-30T03:33:30.096Z,101773.53
2018-12-30T03:35:56.824Z,101792.39
2018-12-30T03:38:23.619Z,101787.77
2018-12-30T03:40:50.357Z,101781.95
2018-12-30T03:43:17.120Z,101775.44
2018-12-30T03:45:43.932Z,101784.77
2018-12-30T03:48:10.679Z,101786.72
2018-12-30T03:50:37.428Z,101789.98
2018-12-30T03:53:04.180Z,101802.34
2018-12-30T03:55:30.904Z,101792.03
2018-12-30T03:57:57.705Z,101793.63
2018-12-30T04:00:24.427Z,101797.85
2018-12-30T04:02:51.171Z,101792.56
2018-12-30T04:05:17.901Z,101792.78
2018-12-30T04:07:44.664Z,101792.29
2018-12-30T04:10:11.396Z,101804.72
2018-12-30T04:12:38.144Z,101795.73
2018-12-30T04:15:04.909Z,101804.20
2018-12-30T04:17:31.687Z,101799.95
2018-12-30T04:19:58.469Z,101795.14
2018-12-30T04:22:25.192Z,101799.92
2018-12-30T04:24:51.944Z,101806.05
2018-12-30T04:27:18.702Z,101810.88
2018-12-30T04:29:45.477Z,101806.63
2018-12-30T04:32:12.228Z,101818.80
2018-12-30T04:34:39.000Z,101820.09
2018-12-30T04:37:05.729Z,101818.87
2018-12-30T04:39:32.502Z,101816.16
2018-12-30T04:41:59.237Z,101821.55
2018-12-30T04:44:25.992Z,101824.97
2018-12-30T04:46:52.741Z,101825.25
2018-12-30T04:49:19.505Z,101836.83
2018-12-30T04:51:46.245Z,101830.44
2018-12-30T04:54:12.993Z,101832.70
2018-12-30T04:56:39.730Z,101827.02
2018-12-30T04:59:06.501Z,101827.58
2018-12-30T05:01:33.355Z,101841.44
2018-12-30T05:03:59.987Z,101842.23
2018-12-30T05:06:26.729Z,101838.44
2018-12-30T05:08:53.500Z,101838.23
2018-12-30T05:11:20.255Z,101842.54
2018-12-30T05:13:47.012Z,101843.13
2018-12-30T05:16:13.744Z,101839.33
2018-12-30T05:18:40.502Z,101839.78
2018-12-30T05:21:07.232Z,101851.23
2018-12-30T05:23:34.004Z,101848.42
2018-12-30T05:26:00.732Z,101857.93
2018-12-30T05:28:27.488Z,101862.63
2018-12-30T05:30:54.245Z,101854.80
2018-12-30T05:33:20.970Z,101869.98
2018-12-30T05:35:47.739Z,101876.36
2018-12-30T05:38:14.485Z,101876.60
2018-12-30T05:40:41.232Z,101885.38
2018-12-30T05:43:07.986Z,101891.12
2018-12-30T05:45:34.761Z,101903.32
2018-12-30T05:48:01.487Z,101905.09
2018-12-30T05:50:28.312Z,101912.23
2018-12-30T05:52:55.062Z,101913.00
2018-12-30T05:55:21.801Z,101919.63
2018-12-30T05:57:48.550Z,101909.56
2018-12-30T06:00:15.304Z,101915.35
2018-12-30T06:02:42.044Z,101914.52
2018-12-30T06:05:08.877Z,101913.13
2018-12-30T06:07:35.540Z,101926.06
2018-12-30T06:10:02.320Z,101937.52
2018-12-30T06:12:29.064Z,101937.91
2018-12-30T06:14:55.822Z,101938.16
2018-12-30T06:17:22.561Z,101941.00
2018-12-30T06:19:49.312Z,101947.34
2018-12-30T06:22:16.056Z,101946.18
2018-12-30T06:24:42.812Z,101948.40
2018-12-30T06:27:09.533Z,101957.98
2018-12-30T06:29:36.276Z,101958.31
2018-12-30T06:32:03.010Z,101958.72
2018-12-30T06:34:29.766Z,101951.24
2018-12-30T06:36:56.548Z,101949.08
2018-12-30T06:39:23.314Z,101949.27
2018-12-30T06:41:50.104Z,101962.34
2018-12-30T06:44:16.845Z,101966.87
2018-12-30T06:46:43.604Z,101974.01
2018-12-30T06:49:10.659Z,101981.54
2018-12-30T06:51:37.103Z,101996.48
2018-12-30T06:54:03.860Z,102004.18
2018-12-30T06:56:30.621Z,102000.38
2018-12-30T06:58:57.352Z,102002.43
2018-12-30T07:01:24.118Z,102003.89
2018-12-30T07:03:50.961Z,102016.22
2018-12-30T07:06:17.756Z,102021.14
2018-12-30T07:08:44.501Z,102028.85
2018-12-30T07:11:11.244Z,102043.98
2018-12-30T07:13:37.996Z,102040.75
2018-12-30T07:16:04.768Z,102040.24
2018-12-30T07:18:31.509Z,102039.80
2018-12-30T07:20:58.295Z,102030.77
2018-12-30T07:23:25.029Z,102037.47
2018-12-30T07:25:51.787Z,102047.27
2018-12-30T07:28:18.571Z,102036.11
2018-12-30T07:30:45.392Z,102047.58
2018-12-30T07:33:12.132Z,102042.00
2018-12-30T07:35:38.957Z,102045.73
2018-12-30T07:38:05.684Z,102054.49
2018-12-30T07:40:32.461Z,102061.66
2018-12-30T07:42:59.206Z,102059.53
2018-12-30T07:45:25.968Z,102042.96
2018-12-30T07:47:52.712Z,102035.83
2018-12-30T07:50:19.483Z,102031.04
2018-12-30T07:52:46.215Z,102037.35
2018-12-30T07:55:13.546Z,102040.21
2018-12-30T07:57:40.858Z,102042.27
2018-12-30T08:00:07.590Z,102042.72
2018-12-30T08:02:34.344Z,102052.25
2018-12-30T08:05:01.100Z,102035.75
2018-12-30T08:07:27.879Z,102038.50
2018-12-30T08:09:54.612Z,102038.92
2018-12-30T08:12:21.387Z,102033.63
2018-12-30T08:14:48.128Z,102043.66
2018-12-30T08:17:14.904Z,102060.30
2018-12-30T08:19:41.640Z,102068.77
2018-12-30T08:22:08.432Z,102078.79
2018-12-30T08:24:35.180Z,102103.34
2018-12-30T08:27:01.950Z,102103.41
2018-12-30T08:29:28.696Z,102110.82
2018-12-30T08:31:55.444Z,102118.42
2018-12-30T08:34:22.184Z,102123.33
2018-12-30T08:36:48.961Z,102122.88
2018-12-30T08:39:15.718Z,102131.25
2018-12-30T08:41:42.492Z,102129.58
2018-12-30T08:44:09.236Z,102130.73
2018-12-30T08:46:36.005Z,102112.47
2018-12-30T08:49:02.745Z,102115.84
2018-12-30T08:51:29.500Z,102130.34
2018-12-30T08:53:56.377Z,102126.45
2018-12-30T08:56:23.136Z,102124.64
2018-12-30T08:58:49.880Z,102131.63
2018-12-30T09:01:16.632Z,102132.91
2018-12-30T09:03:43.369Z,102130.72
2018-12-30T09:06:10.148Z,102127.17
2018-12-30T09:08:36.884Z,102134.22
2018-12-30T09:11:03.645Z,102133.12
2018-12-30T09:13:30.397Z,102137.70
2018-12-30T09:15:57.157Z,102134.78
2018-12-30T09:18:23.912Z,102148.80
2018-12-30T09:20:50.644Z,102142.68
2018-12-30T09:23:19.216Z,102141.70
2018-12-30T09:25:44.229Z,102149.11
2018-12-30T09:28:10.985Z,102156.33
2018-12-30T09:30:37.717Z,102157.44
2018-12-30T09:33:04.508Z,102158.27
2018-12-30T09:35:31.251Z,102159.58
2018-12-30T09:37:58.004Z,102162.94
2018-12-30T09:40:24.784Z,102164.67
2018-12-30T09:42:51.544Z,102166.73
2018-12-30T09:45:18.309Z,102154.67
2018-12-30T09:47:45.075Z,102168.59
2018-12-30T09:50:11.818Z,102166.85
2018-12-30T09:52:38.577Z,102162.34
2018-12-30T09:55:05.313Z,102158.42
2018-12-30T09:57:32.078Z,102170.85
2018-12-30T09:59:58.820Z,102173.84
2018-12-30T10:02:25.701Z,102172.92
2018-12-30T10:04:52.436Z,102177.44
2018-12-30T10:07:19.220Z,102172.85
2018-12-30T10:09:45.964Z,102166.16
2018-12-30T10:12:12.757Z,102164.84
2018-12-30T10:14:39.501Z,102158.22
2018-12-30T10:17:06.249Z,102152.78
2018-12-30T10:19:33.001Z,102152.25
2018-12-30T10:21:59.764Z,102153.82
2018-12-30T10:24:26.504Z,102141.59
2018-12-30T10:26:53.272Z,102154.78
2018-12-30T10:29:20.023Z,102150.26
2018-12-30T10:31:46.797Z,102158.37
2018-12-30T10:34:13.536Z,102150.92
2018-12-30T10:36:40.301Z,102146.58
2018-12-30T10:39:07.081Z,102144.30
2018-12-30T10:41:33.852Z,102143.16
2018-12-30T10:44:00.629Z,102143.56
2018-12-30T10:46:27.400Z,102143.33
2018-12-30T10:48:54.169Z,102149.91
2018-12-30T10:51:20.908Z,102149.92
2018-12-30T10:53:47.693Z,102143.99
2018-12-30T10:56:14.436Z,102149.21
2018-12-30T10:58:41.188Z,102155.33
2018-12-30T11:01:07.948Z,102155.21
2018-12-30T11:03:34.717Z,102156.59
2018-12-30T11:06:02.476Z,102164.20
2018-12-30T11:08:29.240Z,102152.46
2018-12-30T11:10:55.980Z,102151.87
2018-12-30T11:13:22.800Z,102157.62
2018-12-30T11:15:49.680Z,102160.13
2018-12-30T11:18:16.435Z,102159.45
2018-12-30T11:20:43.252Z,102157.93
2018-12-30T11:23:10.012Z,102148.58
2018-12-30T11:25:36.770Z,102139.19
2018-12-30T11:28:03.523Z,102145.20
2018-12-30T11:30:30.265Z,102149.41
2018-12-30T11:32:57.048Z,102154.51
2018-12-30T11:35:23.797Z,102144.86
2018-12-30T11:37:50.588Z,102144.33
2018-12-30T11:40:17.341Z,102146.22
2018-12-30T11:42:44.100Z,102154.24
2018-12-30T11:45:10.844Z,102152.07
2018-12-30T11:47:37.893Z,102150.83
2018-12-30T11:50:05.377Z,102144.51
2018-12-30T11:52:32.124Z,102150.59
2018-12-30T11:54:58.920Z,102163.13
2018-12-30T11:57:25.649Z,102147.09
2018-12-30T11:59:52.405Z,102154.70
2018-12-30T12:02:23.963Z,102140.78
2018-12-30T12:04:45.921Z,102145.95
2018-12-30T12:07:12.660Z,102148.23
2018-12-30T12:09:39.425Z,102149.52
2018-12-30T12:12:06.176Z,102143.82
2018-12-30T12:14:33.036Z,102140.85
2018-12-30T12:16:59.780Z,102129.08
2018-12-30T12:19:26.628Z,102119.42
2018-12-30T12:21:53.381Z,102118.97
2018-12-30T12:24:24.309Z,102109.85
2018-12-30T12:26:46.888Z,102105.48
2018-12-30T12:29:14.100Z,102098.28
2018-12-30T12:31:40.857Z,102103.05
2018-12-30T12:34:07.620Z,102095.44
2018-12-30T12:36:34.384Z,102095.67
2018-12-30T12:39:01.172Z,102088.86
2018-12-30T12:41:27.957Z,102100.11
2018-12-30T12:43:54.708Z,102098.59
2018-12-30T12:46:21.457Z,102109.58
2018-12-30T12:48:48.225Z,102100.77
2018-12-30T12:51:14.959Z,102100.38
2018-12-30T12:53:41.726Z,102101.86
2018-12-30T12:56:08.467Z,102093.81
2018-12-30T12:58:35.224Z,102104.87
2018-12-30T13:01:01.965Z,102093.31
2018-12-30T13:03:28.716Z,102094.75
2018-12-30T13:05:55.477Z,102106.92
2018-12-30T13:08:22.213Z,102099.02
2018-12-30T13:10:48.988Z,102095.02
2018-12-30T13:13:15.732Z,102093.73
2018-12-30T13:15:42.624Z,102091.98
2018-12-30T13:18:09.381Z,102098.22
2018-12-30T13:20:36.127Z,102097.53
2018-12-30T13:23:02.881Z,102096.81
2018-12-30T13:25:29.637Z,102097.00
2018-12-30T13:27:56.368Z,102105.97
2018-12-30T13:30:23.116Z,102105.97
2018-12-30T13:32:49.868Z,102124.22
2018-12-30T13:35:16.681Z,102117.75
2018-12-30T13:37:43.432Z,102102.84
2018-12-30T13:40:10.195Z,102093.43
2018-12-30T13:42:36.932Z,102102.08
2018-12-30T13:45:04.120Z,102107.98
2018-12-30T13:47:30.864Z,102108.06
2018-12-30T13:49:57.624Z,102108.41
2018-12-30T13:52:24.372Z,102109.16
2018-12-30T13:54:51.132Z,102107.67
2018-12-30T13:57:17.876Z,102113.30
2018-12-30T13:59:44.639Z,102103.15
2018-12-30T14:02:11.411Z,102104.25
2018-12-30T14:04:38.177Z,102108.66
2018-12-30T14:07:04.936Z,102112.98
2018-12-30T14:09:31.712Z,102107.66
2018-12-30T14:11:58.452Z,102102.95
2018-12-30T14:14:25.208Z,102110.25
2018-12-30T14:16:51.964Z,102104.43
2018-12-30T14:19:18.735Z,102103.19
2018-12-30T14:21:45.480Z,102109.45
2018-12-30T14:24:12.241Z,102113.62
2018-12-30T14:26:39.001Z,102118.26
2018-12-30T14:29:05.767Z,102111.18
2018-12-30T14:31:32.517Z,102113.77
2018-12-30T14:33:59.258Z,102111.18
2018-12-30T14:36:26.097Z,102113.55
2018-12-30T14:38:52.888Z,102113.95
2018-12-30T14:41:19.628Z,102115.98
2018-12-30T14:43:46.387Z,102129.90
2018-12-30T14:46:13.136Z,102147.36
2018-12-30T14:48:39.912Z,102146.30
2018-12-30T14:51:06.660Z,102152.00
2018-12-30T14:53:33.413Z,102151.02
2018-12-30T14:56:00.184Z,102161.02
2018-12-30T14:58:26.925Z,102156.64
2018-12-30T15:00:53.686Z,102157.83
2018-12-30T15:03:20.444Z,102154.27
2018-12-30T15:05:47.200Z,102161.87
2018-12-30T15:08:13.941Z,102154.17
2018-12-30T15:10:40.697Z,102146.00
2018-12-30T15:13:07.448Z,102149.08
2018-12-30T15:15:34.213Z,102163.70
2018-12-30T15:18:00.994Z,102163.35
2018-12-30T15:20:27.814Z,102171.48
2018-12-30T15:22:54.501Z,102174.69
2018-12-30T15:25:21.241Z,102161.87
2018-12-30T15:27:47.997Z,102162.19
2018-12-30T15:30:14.760Z,102166.13
2018-12-30T15:32:41.531Z,102162.33
2018-12-30T15:35:08.260Z,102158.58
2018-12-30T15:37:35.023Z,102152.44
2018-12-30T15:40:01.785Z,102151.05
2018-12-30T15:42:28.564Z,102151.92
2018-12-30T15:44:55.321Z,102154.40
2018-12-30T15:47:22.086Z,102161.63
2018-12-30T15:49:48.829Z,102172.00
2018-12-30T15:52:15.587Z,102189.91
2018-12-30T15:54:42.328Z,102186.37
2018-12-30T15:57:09.104Z,102193.89
2018-12-30T15:59:35.853Z,102200.48
2018-12-30T16:02:02.717Z,102202.22
2018-12-30T16:04:29.453Z,102198.45
2018-12-30T16:06:56.219Z,102188.38
2018-12-30T16:09:23.037Z,102182.89
2018-12-30T16:11:49.780Z,102175.50
2018-12-30T16:14:16.548Z,102172.23
2018-12-30T16:16:43.301Z,102172.87
2018-12-30T16:19:10.060Z,102161.81
2018-12-30T16:21:36.818Z,102160.03
2018-12-30T16:24:03.570Z,102146.53
2018-12-30T16:26:30.337Z,102159.95
2018-12-30T16:28:57.075Z,102160.75
2018-12-30T16:31:28.044Z,102172.17
2018-12-30T16:33:50.563Z,102159.85
2018-12-30T16:36:17.344Z,102152.27
2018-12-30T16:38:44.088Z,102147.93
2018-12-30T16:41:10.832Z,102153.45
2018-12-30T16:43:37.617Z,102147.73
2018-12-30T16:46:04.361Z,102140.48
2018-12-30T16:48:31.137Z,102136.14
2018-12-30T16:50:57.887Z,102139.04
2018-12-30T16:53:24.640Z,102147.21
2018-12-30T16:55:51.416Z,102153.20
2018-12-30T16:58:18.216Z,102137.70
2018-12-30T17:00:45.006Z,102133.73
2018-12-30T17:03:11.752Z,102132.41
2018-12-30T17:05:38.557Z,102132.66
2018-12-30T17:08:05.321Z,102133.48
2018-12-30T17:10:32.073Z,102133.17
2018-12-30T17:12:58.846Z,102129.78
2018-12-30T17:15:25.585Z,102137.64
2018-12-30T17:17:52.349Z,102146.08
2018-12-30T17:20:19.096Z,102144.23
2018-12-30T17:22:45.855Z,102140.04
2018-12-30T17:25:12.585Z,102143.52
2018-12-30T17:27:39.344Z,102137.45
2018-12-30T17:30:07.658Z,102141.07
2018-12-30T17:32:34.431Z,102146.41
2018-12-30T17:35:01.174Z,102141.82
2018-12-30T17:37:27.949Z,102139.84
2018-12-30T17:39:54.739Z,102143.19
2018-12-30T17:42:21.526Z,102150.55
2018-12-30T17:44:48.305Z,102146.84
2018-12-30T17:47:15.125Z,102153.50
2018-12-30T17:49:41.882Z,102147.26
2018-12-30T17:52:08.678Z,102138.08
2018-12-30T17:54:35.412Z,102136.09
2018-12-30T17:57:02.192Z,102126.34
2018-12-30T17:59:28.976Z,102127.31
2018-12-30T18:01:55.718Z,102135.13
2018-12-30T18:04:22.504Z,102131.81
2018-12-30T18:06:49.485Z,102122.09
2018-12-30T18:09:16.278Z,102123.69
2018-12-30T18:11:43.072Z,102128.92
2018-12-30T18:14:09.827Z,102117.31
2018-12-30T18:16:36.580Z,102122.09
2018-12-30T18:19:03.333Z,102122.71
2018-12-30T18:21:30.118Z,102128.58
2018-12-30T18:23:56.901Z,102138.13
2018-12-30T18:26:23.646Z,102132.72
2018-12-30T18:28:50.408Z,102124.45
2018-12-30T18:31:17.168Z,102127.42
2018-12-30T18:33:43.940Z,102129.42
2018-12-30T18:36:10.689Z,102135.09
2018-12-30T18:38:37.548Z,102136.58
2018-12-30T18:41:04.408Z,102134.87
2018-12-30T18:43:31.176Z,102148.11
2018-12-30T18:45:58.016Z,102135.41
2018-12-30T18:48:24.776Z,102136.27
2018-12-30T18:50:51.517Z,102134.63
2018-12-30T18:53:18.368Z,102138.14
2018-12-30T18:55:46.516Z,102141.89
2018-12-30T18:58:11.833Z,102142.10
2018-12-30T19:00:38.577Z,102132.83
2018-12-30T19:03:05.341Z,102129.77
2018-12-30T19:05:32.195Z,102129.59
2018-12-30T19:07:59.345Z,102118.80
2018-12-30T19:10:26.213Z,102122.95
2018-12-30T19:12:52.960Z,102117.20
2018-12-30T19:15:19.743Z,102103.64
2018-12-30T19:17:46.490Z,102104.50
2018-12-30T19:20:13.361Z,102109.08
2018-12-30T19:22:40.104Z,102110.31
2018-12-30T19:25:06.877Z,102113.30
2018-12-30T19:27:33.653Z,102119.45
2018-12-30T19:30:00.426Z,102115.58
2018-12-30T19:32:27.176Z,102123.09
2018-12-30T19:34:53.954Z,102128.91
2018-12-30T19:37:20.700Z,102130.17
2018-12-30T19:39:47.464Z,102127.09
2018-12-30T19:42:14.210Z,102132.63
2018-12-30T19:44:42.049Z,102126.31
2018-12-30T19:47:08.803Z,102126.98
2018-12-30T19:49:35.557Z,102126.34
2018-12-30T19:52:02.361Z,102127.17
2018-12-30T19:54:29.138Z,102126.27
2018-12-30T19:56:55.880Z,102123.71
2018-12-30T19:59:22.657Z,102119.08
2018-12-30T20:01:49.435Z,102133.66
2018-12-30T20:04:16.206Z,102121.42
2018-12-30T20:06:42.944Z,102117.82
2018-12-30T20:09:09.705Z,102131.53
2018-12-30T20:11:36.468Z,102133.55
2018-12-30T20:14:03.237Z,102138.37
2018-12-30T20:16:30.037Z,102129.69
2018-12-30T20:18:56.789Z,102126.31
2018-12-30T20:21:23.542Z,102135.63
2018-12-30T20:23:50.337Z,102128.42
2018-12-30T20:26:17.073Z,102120.97
2018-12-30T20:28:43.824Z,102117.34
2018-12-30T20:31:10.594Z,102115.53
2018-12-30T20:33:37.328Z,102125.11
2018-12-30T20:36:04.088Z,102126.54
2018-12-30T20:38:30.820Z,102120.30
2018-12-30T20:40:57.607Z,102108.29
2018-12-30T20:43:24.371Z,102111.64
2018-12-30T20:45:51.209Z,102112.98
2018-12-30T20:48:17.958Z,102109.18
2018-12-30T20:50:44.720Z,102112.43
2018-12-30T20:53:11.473Z,102106.92
2018-12-30T20:55:38.229Z,102108.14
2018-12-30T20:58:04.993Z,102118.09
2018-12-30T21:00:31.763Z,102113.62
2018-12-30T21:02:58.516Z,102103.63
2018-12-30T21:05:25.290Z,102107.23
2018-12-30T21:07:52.157Z,102109.36
2018-12-30T21:10:18.926Z,102099.52
2018-12-30T21:12:45.695Z,102099.00
2018-12-30T21:15:12.449Z,102100.09
2018-12-30T21:17:39.199Z,102094.30
2018-12-30T21:20:05.979Z,102087.84
2018-12-30T21:22:32.724Z,102086.64
2018-12-30T21:24:59.489Z,102080.38
2018-12-30T21:27:26.224Z,102078.94
2018-12-30T21:29:52.996Z,102081.59
2018-12-30T21:32:19.734Z,102082.22
2018-12-30T21:34:46.488Z,102082.05
2018-12-30T21:37:13.233Z,102079.54
2018-12-30T21:39:40.005Z,102079.67
2018-12-30T21:42:06.775Z,102078.42
2018-12-30T21:44:33.564Z,102073.20
2018-12-30T21:47:00.356Z,102072.77
2018-12-30T21:49:27.092Z,102072.56
2018-12-30T21:51:53.857Z,102072.88
2018-12-30T21:54:20.608Z,102074.17
2018-12-30T21:56:54.585Z,102073.29
2018-12-30T21:59:14.134Z,102079.64
2018-12-30T22:01:40.897Z,102074.17
2018-12-30T22:04:07.649Z,102062.34
2018-12-30T22:06:34.424Z,102072.81
2018-12-30T22:09:01.167Z,102073.36
2018-12-30T22:11:27.937Z,102068.63
2018-12-30T22:13:54.705Z,102064.55
2018-12-30T22:16:21.598Z,102064.55
2018-12-30T22:18:48.332Z,102065.97
2018-12-30T22:21:15.097Z,102061.20
2018-12-30T22:23:41.852Z,102066.81
2018-12-30T22:26:08.616Z,102068.24
2018-12-30T22:28:35.355Z,102078.36
2018-12-30T22:31:02.133Z,102073.27
2018-12-30T22:33:28.873Z,102079.50
2018-12-30T22:35:55.652Z,102077.66
2018-12-30T22:38:22.390Z,102075.39
2018-12-30T22:40:49.152Z,102079.78
2018-12-30T22:43:15.900Z,102079.16
2018-12-30T22:45:42.648Z,102073.53
2018-12-30T22:48:09.420Z,102080.09
2018-12-30T22:50:36.180Z,102077.61
2018-12-30T22:53:02.945Z,102075.14
2018-12-30T22:55:29.700Z,102073.13
2018-12-30T22:57:56.465Z,102074.24
2018-12-30T23:00:36.892Z,102075.98
2018-12-30T23:03:03.700Z,102064.95
2018-12-30T23:05:30.392Z,102063.59
2018-12-30T23:07:57.164Z,102057.61
2018-12-30T23:10:23.921Z,102064.19
2018-12-30T23:12:50.724Z,102051.09
2018-12-30T23:15:17.460Z,102055.16
2018-12-30T23:17:44.237Z,102045.68
2018-12-30T23:20:10.976Z,102042.72
2018-12-30T23:22:37.768Z,102030.77
2018-12-30T23:25:04.648Z,102041.95
2018-12-30T23:27:31.484Z,102037.48
2018-12-30T23:29:58.247Z,102032.16
2018-12-30T23:32:25.113Z,102034.52
2018-12-30T23:34:51.873Z,102031.80
2018-12-30T23:37:18.644Z,102023.69
2018-12-30T23:39:45.383Z,102017.91
2018-12-30T23:42:12.224Z,102008.28
2018-12-30T23:44:38.980Z,102006.75
2018-12-30T23:47:05.744Z,102017.89
2018-12-30T23:49:32.496Z,102016.87
2018-12-30T23:51:59.256Z,102011.96
2018-12-30T23:54:25.993Z,102006.11
2018-12-30T23:56:52.737Z,102012.40
2018-12-30T23:59:19.465Z,102023.06
